createdAt,value
2022-12-16T00:03:02.750Z,47.20
2022-12-16T00:08:06.491Z,46.10
2022-12-16T00:13:10.775Z,45.60
2022-12-16T00:23:18.064Z,48.20
2022-12-16T00:28:23.332Z,47.70
2022-12-16T00:33:27.858Z,48.60
2022-12-16T00:38:31.270Z,46.60
2022-12-16T00:43:34.910Z,32.30
2022-12-16T00:48:38.506Z,48.60
2022-12-16T00:53:41.919Z,49.00
2022-12-16T00:58:45.332Z,51.30
2022-12-16T01:03:48.928Z,46.20
2022-12-16T01:08:52.467Z,52.40
2022-12-16T01:13:58.234Z,50.70
2022-12-16T01:19:01.852Z,51.90
2022-12-16T01:24:05.676Z,49.70
2022-12-16T01:29:08.990Z,48.90
2022-12-16T01:34:12.401Z,49.70
2022-12-16T01:39:15.707Z,47.60
2022-12-16T01:44:28.134Z,35.80
2022-12-16T01:49:42.093Z,45.20
2022-12-16T01:54:56.053Z,45.40
2022-12-16T02:00:01.723Z,47.80
2022-12-16T02:05:20.809Z,41.30
2022-12-16T02:10:43.671Z,39.60
2022-12-16T02:16:05.720Z,35.40
2022-12-16T02:21:18.245Z,38.80
2022-12-16T02:27:19.523Z,33.40
2022-12-16T02:32:22.829Z,36.00
2022-12-16T02:37:43.340Z,37.40
2022-12-16T02:42:54.025Z,35.10
2022-12-16T02:47:58.665Z,35.70
2022-12-16T02:53:03.204Z,38.00
2022-12-16T02:58:28.122Z,35.20
2022-12-16T03:03:45.391Z,36.80
2022-12-16T03:08:54.202Z,35.90
2022-12-16T03:13:59.512Z,33.60
2022-12-16T03:19:08.533Z,32.70
2022-12-16T03:24:14.880Z,32.60
2022-12-16T03:29:28.026Z,31.90
2022-12-16T03:34:45.569Z,31.30
2022-12-16T03:39:53.693Z,32.70
2022-12-16T03:44:57.619Z,33.00
2022-12-16T03:50:01.036Z,34.00
2022-12-16T03:55:04.913Z,23.60
2022-12-16T04:00:09.624Z,32.40
2022-12-16T04:05:13.726Z,32.90
2022-12-16T04:10:17.346Z,33.00
2022-12-16T04:15:40.174Z,35.10
2022-12-16T04:21:06.772Z,34.00
2022-12-16T04:26:10.798Z,36.60
2022-12-16T04:31:14.194Z,36.30
2022-12-16T04:36:36.567Z,38.40
2022-12-16T04:41:58.517Z,36.80
2022-12-16T04:47:20.669Z,38.70
2022-12-16T04:52:42.922Z,37.20
2022-12-16T04:58:12.964Z,39.20
2022-12-16T05:03:35.621Z,37.90
2022-12-16T05:08:57.981Z,38.80
2022-12-16T05:14:20.337Z,39.00
2022-12-16T05:19:42.697Z,38.30
2022-12-16T05:25:05.052Z,37.90
2022-12-16T05:30:33.374Z,36.60
2022-12-16T05:35:56.118Z,38.70
2022-12-16T05:41:18.574Z,34.40
2022-12-16T05:46:41.072Z,38.80
2022-12-16T05:52:03.202Z,29.30
2022-12-16T05:57:25.752Z,32.70
2022-12-16T06:02:48.401Z,35.90
2022-12-16T06:08:12.107Z,35.20
2022-12-16T06:13:34.663Z,30.10
2022-12-16T06:18:57.020Z,34.20
2022-12-16T06:24:19.083Z,34.80
2022-12-16T06:29:41.326Z,32.20
2022-12-16T06:35:03.586Z,27.90
2022-12-16T06:40:26.349Z,29.30
2022-12-16T06:45:48.650Z,34.40
2022-12-16T06:51:10.652Z,29.90
2022-12-16T06:56:32.905Z,32.10
2022-12-16T07:01:55.358Z,31.10
2022-12-16T07:07:17.965Z,26.20
2022-12-16T07:12:40.284Z,26.50
2022-12-16T07:18:04.486Z,29.20
2022-12-16T07:23:26.847Z,26.40
2022-12-16T07:28:49.200Z,30.20
2022-12-16T07:34:11.356Z,27.50
2022-12-16T07:39:33.402Z,25.90
2022-12-16T07:44:55.760Z,24.10
2022-12-16T07:50:17.894Z,31.70
2022-12-16T07:55:40.064Z,30.80
2022-12-16T08:01:07.709Z,26.70
2022-12-16T08:06:34.781Z,29.10
2022-12-16T08:11:59.630Z,28.20
2022-12-16T08:17:21.780Z,30.40
2022-12-16T08:22:44.139Z,29.00
2022-12-16T08:28:05.978Z,31.60
2022-12-16T08:33:28.033Z,32.30
2022-12-16T08:38:50.390Z,34.40
2022-12-16T08:44:13.164Z,30.20
2022-12-16T08:49:35.575Z,27.20
2022-12-16T08:54:57.870Z,28.10
2022-12-16T09:00:19.717Z,28.70
2022-12-16T09:05:42.485Z,24.90
2022-12-16T09:11:04.840Z,26.30
2022-12-16T09:16:27.031Z,23.20
2022-12-16T09:21:49.248Z,23.40
2022-12-16T09:27:11.503Z,19.90
2022-12-16T09:32:33.963Z,23.80
2022-12-16T09:37:55.909Z,23.70
2022-12-16T09:43:42.638Z,24.80
2022-12-16T09:49:34.691Z,24.90
2022-12-16T09:55:00.634Z,23.20
2022-12-16T10:00:26.371Z,20.30
2022-12-16T10:06:07.362Z,22.50
2022-12-16T10:11:55.640Z,19.90
2022-12-16T10:17:31.606Z,25.80
2022-12-16T10:23:10.246Z,24.30
2022-12-16T10:28:56.774Z,20.70
2022-12-16T10:34:19.231Z,25.40
2022-12-16T10:39:52.900Z,26.40
2022-12-16T10:45:20.734Z,25.50
2022-12-16T10:50:43.207Z,26.70
2022-12-16T10:56:37.304Z,23.00
2022-12-16T11:01:59.711Z,25.20
2022-12-16T11:07:36.042Z,27.50
2022-12-16T11:12:58.088Z,29.30
2022-12-16T11:18:24.236Z,27.60
2022-12-16T11:23:46.181Z,26.00
2022-12-16T11:29:32.914Z,30.30
2022-12-16T11:34:56.395Z,27.90
2022-12-16T11:40:21.211Z,27.90
2022-12-16T11:45:43.565Z,23.60
2022-12-16T11:51:17.597Z,27.20
2022-12-16T11:56:43.386Z,24.50
2022-12-16T12:02:13.959Z,29.00
2022-12-16T12:07:53.337Z,26.60
2022-12-16T12:13:42.836Z,28.00
2022-12-16T12:19:18.194Z,30.50
2022-12-16T12:25:07.072Z,24.50
2022-12-16T12:30:31.074Z,22.50
2022-12-16T12:36:24.660Z,24.50
2022-12-16T12:42:06.163Z,22.00
2022-12-16T12:47:30.980Z,22.30
2022-12-16T12:53:05.632Z,23.80
2022-12-16T12:58:30.131Z,25.50
2022-12-16T13:04:01.806Z,23.40
2022-12-16T13:09:46.900Z,20.40
2022-12-16T13:15:09.151Z,17.50
2022-12-16T13:20:53.321Z,19.10
2022-12-16T13:26:24.381Z,17.50
2022-12-16T13:31:49.645Z,19.10
2022-12-16T13:37:17.844Z,20.20
2022-12-16T13:43:09.239Z,18.80
2022-12-16T13:49:00.678Z,20.00
2022-12-16T13:54:26.414Z,21.50
2022-12-16T13:59:51.230Z,16.50
2022-12-16T14:05:13.690Z,18.40
2022-12-16T14:10:47.516Z,23.50
2022-12-16T14:16:25.080Z,20.60
2022-12-16T14:22:29.574Z,23.40
2022-12-16T14:27:53.772Z,21.50
2022-12-16T14:33:15.823Z,16.80
2022-12-16T14:38:46.167Z,18.80
2022-12-16T14:44:08.526Z,20.40
2022-12-16T14:49:43.681Z,20.80
2022-12-16T14:55:05.632Z,19.90
2022-12-16T15:00:27.679Z,20.00
2022-12-16T15:05:54.034Z,22.60
2022-12-16T15:11:19.875Z,22.10
2022-12-16T15:16:50.365Z,17.90
2022-12-16T15:22:12.573Z,18.00
2022-12-16T15:27:40.560Z,23.30
2022-12-16T15:33:11.213Z,22.50
2022-12-16T15:38:43.193Z,18.90
2022-12-16T15:44:08.935Z,17.30
2022-12-16T15:49:45.521Z,11.30
2022-12-16T15:55:13.306Z,20.50
2022-12-16T16:00:43.875Z,15.40
2022-12-16T16:06:05.803Z,21.00
2022-12-16T16:11:28.269Z,11.80
2022-12-16T16:16:50.311Z,17.00
2022-12-16T16:22:12.566Z,15.20
2022-12-16T16:27:35.847Z,19.20
2022-12-16T16:32:58.108Z,18.60
2022-12-16T16:38:20.458Z,17.20
2022-12-16T16:43:43.325Z,16.20
2022-12-16T16:49:05.587Z,17.30
2022-12-16T16:54:27.543Z,22.50
2022-12-16T16:59:49.885Z,20.10
2022-12-16T17:05:12.445Z,16.70
2022-12-16T17:10:35.725Z,19.80
2022-12-16T17:15:57.942Z,19.90
2022-12-16T17:21:20.037Z,20.70
2022-12-16T17:26:42.796Z,20.10
2022-12-16T17:32:04.743Z,22.60
2022-12-16T17:37:27.103Z,27.20
2022-12-16T17:42:49.355Z,18.30
2022-12-16T17:48:11.303Z,24.00
2022-12-16T17:53:34.056Z,18.80
2022-12-16T17:58:58.372Z,19.90
2022-12-16T18:04:20.485Z,16.90
2022-12-16T18:09:42.576Z,19.00
2022-12-16T18:15:04.525Z,29.50
2022-12-16T18:20:27.496Z,24.70
2022-12-16T18:25:49.853Z,16.90
2022-12-16T18:31:12.062Z,26.40
2022-12-16T18:36:34.361Z,26.50
2022-12-16T18:42:01.751Z,28.30
2022-12-16T18:47:24.093Z,29.20
2022-12-16T18:52:46.348Z,22.10
2022-12-16T18:58:42.226Z,29.60
2022-12-16T19:03:54.210Z,25.80
2022-12-16T19:09:16.362Z,29.60
2022-12-16T19:14:38.831Z,19.70
2022-12-16T19:20:00.971Z,22.50
2022-12-16T19:25:23.438Z,30.20
2022-12-16T19:30:45.481Z,25.10
2022-12-16T19:36:07.634Z,23.60
2022-12-16T19:41:34.708Z,25.90
2022-12-16T19:46:56.953Z,23.50
2022-12-16T19:52:19.015Z,22.30
2022-12-16T19:57:41.464Z,20.50
2022-12-16T20:03:04.027Z,28.00
2022-12-16T20:08:26.690Z,23.30
2022-12-16T20:13:48.536Z,20.70
2022-12-16T20:19:10.891Z,24.10
2022-12-16T20:24:33.146Z,25.10
2022-12-16T20:29:56.463Z,23.60
2022-12-16T20:35:19.092Z,22.50
2022-12-16T20:40:41.451Z,21.70
2022-12-16T20:46:03.497Z,23.00
2022-12-16T20:51:27.025Z,22.90
2022-12-16T20:56:49.336Z,20.40
2022-12-16T21:02:31.742Z,26.10
2022-12-16T21:07:54.022Z,23.90
2022-12-16T21:13:16.582Z,26.30
2022-12-16T21:18:38.530Z,28.00
2022-12-16T21:24:00.474Z,19.90
2022-12-16T21:29:22.936Z,24.60
2022-12-16T21:34:44.786Z,23.60
2022-12-16T21:40:07.143Z,21.90
2022-12-16T21:45:29.807Z,22.50
2022-12-16T21:50:52.057Z,23.00
2022-12-16T21:56:15.439Z,20.80
2022-12-16T22:01:40.945Z,20.70
2022-12-16T22:07:03.429Z,16.10
2022-12-16T22:12:26.303Z,16.60
2022-12-16T22:17:53.021Z,17.80
2022-12-16T22:23:37.034Z,18.90
2022-12-16T22:28:59.280Z,20.50
2022-12-16T22:34:21.638Z,20.50
2022-12-16T22:39:45.094Z,20.40
2022-12-16T22:45:26.229Z,26.90
2022-12-16T22:50:50.520Z,27.20
2022-12-16T22:56:14.210Z,23.10
2022-12-16T23:01:38.517Z,14.90
2022-12-16T23:12:23.847Z,24.60
2022-12-16T23:17:46.093Z,24.50
2022-12-16T23:23:08.043Z,18.40
2022-12-16T23:28:29.889Z,18.70
2022-12-16T23:33:52.346Z,21.00
2022-12-16T23:39:14.398Z,18.90
2022-12-16T23:44:36.551Z,14.10
2022-12-16T23:49:58.905Z,16.80
2022-12-16T23:55:21.159Z,12.40
